Date,TemperatureHighF,TemperatureAvgF,TemperatureLowF,DewpointHighF,DewpointAvgF,DewpointLowF,HumidityHigh,HumidityAvg,HumidityLow,PressureMaxIn,PressureMinIn,WindSpeedMaxMPH,WindSpeedAvgMPH,GustSpeedMaxMPH,PrecipitationSumIn
2013-9-1,82,74,70,76,71,67,94,90,81,29.88,29.78,5,1,10,0.19
2013-9-2,85,76,72,74,72,69,96,87,69,29.87,29.71,7,1,13,0.04
2013-9-3,83,75,67,72,68,60,96,80,59,29.80,29.68,9,1,11,0.00
2013-9-4,82,71,60,61,57,54,89,63,37,29.91,29.80,8,2,14,0.00
2013-9-5,72,64,52,62,57,45,92,77,40,30.14,29.85,3,0,7,0.08
2013-9-6,72,60,46,47,43,38,87,56,30,30.24,30.09,3,1,9,0.00
2013-9-7,82,66,52,57,50,45,81,59,33,30.09,29.85,6,2,10,0.00
2013-9-8,78,66,53,62,52,41,85,62,36,30.09,29.74,8,2,13,0.00
2013-9-9,72,60,45,51,44,41,87,60,36,30.23,30.09,6,1,10,0.00
2013-9-10,77,68,57,70,62,51,92,82,76,30.15,30.02,7,2,13,0.09
2013-9-11,97,82,70,77,72,67,96,74,42,30.06,29.93,7,2,11,0.00
2013-9-12,89,79,68,74,71,67,95,78,57,29.96,29.67,8,2,20,0.96
2013-9-13,82,70,60,69,65,55,97,85,57,29.75,29.56,4,0,7,0.10
2013-9-14,70,62,54,55,53,51,90,73,59,30.05,29.75,4,1,8,0.00
2013-9-15,73,61,49,53,49,45,96,69,38,30.16,30.05,6,1,10,0.00
2013-9-16,69,60,50,55,50,40,83,72,57,30.25,30.01,4,1,6,0.01
2013-9-17,66,54,42,45,40,36,83,61,38,30.42,30.25,4,0,7,0.00
2013-9-18,77,60,44,50,45,41,92,62,28,30.32,30.14,4,1,8,0.00
2013-9-19,82,65,50,55,51,47,89,66,32,30.14,30.02,4,0,6,0.00
2013-9-20,82,66,52,59,55,50,94,72,39,30.08,29.99,3,0,6,0.00
2013-9-21,78,67,55,66,60,54,97,80,54,30.03,29.73,13,2,19,0.00
2013-9-22,73,66,54,67,57,47,95,75,47,29.83,29.60,7,2,16,0.71
2013-9-23,65,55,47,45,42,40,80,64,47,30.00,29.83,6,1,10,0.00
2013-9-24,70,55,44,46,42,40,85,65,39,29.99,29.81,5,1,12,0.00
2013-9-25,68,57,46,50,47,44,93,72,51,29.98,29.88,4,1,7,0.00
2013-9-26,69,60,55,52,49,47,84,69,47,30.11,29.98,5,0,9,0.00
2013-9-30,70,58,50,53,51,48,95,79,54,29.99,29.96,2,0,6,0.00